This is the latest recevied weather packets stored in our database for station/object WA4IKQ. If no packets are shown the sender has not sent any weather packets the latest 10 day(s).
| Time | Temp. | Humidity | Pressure | Rain* | Wind** | Luminosity | Snow |
|---|---|---|---|---|---|---|---|
| 1787508977 | 30.56° C | 65% | 1015.7 hPa | 0 mm | 0 m/s | - | - |
| 1787508721 | 31.11° C | 64% | 1015.8 hPa | 0 mm | 1.34 m/s, 183° | - | - |
| 1787508673 | 31.11° C | 64% | 1015.8 hPa | 0 mm | 1.34 m/s, 183° | - | - |
| 1787508443 | 31.11° C | 64% | 1015.9 hPa | 0 mm | 0.89 m/s, 184° | - | - |
| 1787508372 | 31.11° C | 64% | 1015.9 hPa | 0 mm | 0.89 m/s, 184° | - | - |
| 1787508139 | 31.11° C | 64% | 1016 hPa | 0 mm | 0.89 m/s, 135° | - | - |
| 1787508071 | 31.11° C | 64% | 1016 hPa | 0 mm | 0.89 m/s, 135° | - | - |
| 1787507838 | 31.11° C | 64% | 1016.1 hPa | 0 mm | 1.79 m/s, 142° | - | - |
| 1787507771 | 31.11° C | 64% | 1016.1 hPa | 0 mm | 1.79 m/s, 142° | - | - |
| 1787507551 | 31.11° C | 62% | 1016.1 hPa | 0 mm | 2.68 m/s, 170° | - | - |
| 1787507471 | 31.11° C | 62% | 1016.1 hPa | 0 mm | 2.68 m/s, 170° | - | - |
| 1787507253 | 31.11° C | 63% | 1016.1 hPa | 0 mm | 2.68 m/s, 210° | - | - |
| 1787507171 | 31.11° C | 63% | 1016.1 hPa | 0 mm | 2.68 m/s, 210° | - | - |
| 1787506966 | 31.11° C | 64% | 1016 hPa | 0 mm | 1.79 m/s, 179° | - | - |
| 1787506872 | 31.11° C | 64% | 1016 hPa | 0 mm | 1.79 m/s, 179° | - | - |
| 1787506650 | 31.11° C | 65% | 1016 hPa | 0 mm | 1.79 m/s, 121° | - | - |
| 1787506570 | 31.11° C | 65% | 1016 hPa | 0 mm | 1.79 m/s, 121° | - | - |
| 1787506409 | 31.11° C | 65% | 1016 hPa | 0 mm | 2.68 m/s, 186° | - | - |
| 1787506271 | 31.11° C | 65% | 1016 hPa | 0 mm | 2.68 m/s, 186° | - | - |
| 1787505817 | 30.56° C | 66% | 1016 hPa | 0 mm | 1.34 m/s, 152° | - | - |
| 1787505781 | 30.56° C | 66% | 1016 hPa | 0 mm | 1.34 m/s, 152° | - | - |
| 1787505671 | 30.56° C | 66% | 1016 hPa | 0 mm | 1.34 m/s, 152° | - | - |
| 1787505450 | 30.56° C | 66% | 1016.1 hPa | 0 mm | 2.24 m/s, 149° | - | - |
| 1787505371 | 30.56° C | 66% | 1016.1 hPa | 0 mm | 2.24 m/s, 149° | - | - |
| 1787505173 | 30.56° C | 65% | 1016.1 hPa | 0 mm | 3.13 m/s, 204° | - | - |
* Rain latest hour (hover to see other rain measurements)
** Current wind speed in m/s (hover to see current wind gust speed)